createdAt,value
2023-03-24T00:01:50.949Z,16.21
2023-03-24T00:04:53.064Z,15.83
2023-03-24T00:07:55.396Z,16.15
2023-03-24T00:11:01.835Z,16.20
2023-03-24T00:14:04.881Z,16.24
2023-03-24T00:17:09.916Z,16.23
2023-03-24T00:20:14.613Z,16.12
2023-03-24T00:23:16.015Z,16.19
2023-03-24T00:26:17.644Z,16.24
2023-03-24T00:29:20.017Z,16.24
2023-03-24T00:32:21.716Z,16.12
2023-03-24T00:35:23.315Z,16.21
2023-03-24T00:38:24.947Z,16.11
2023-03-24T00:41:27.935Z,16.12
2023-03-24T00:44:29.384Z,16.09
2023-03-24T00:47:36.656Z,16.28
2023-03-24T00:50:38.365Z,16.20
2023-03-24T00:53:43.514Z,16.42
2023-03-24T00:56:49.472Z,15.95
2023-03-24T00:59:54.577Z,16.50
2023-03-24T01:02:57.825Z,16.53
2023-03-24T01:06:04.907Z,16.25
2023-03-24T01:09:07.220Z,16.32
2023-03-24T01:12:08.677Z,16.30
2023-03-24T01:15:14.962Z,16.22
2023-03-24T01:18:17.259Z,16.30
2023-03-24T01:21:18.756Z,16.15
2023-03-24T01:24:25.569Z,16.15
2023-03-24T01:27:27.286Z,16.08
2023-03-24T01:30:30.082Z,16.20
2023-03-24T01:33:31.524Z,16.47
2023-03-24T01:36:33.204Z,16.44
2023-03-24T01:39:34.795Z,16.21
2023-03-24T01:42:37.825Z,16.31
2023-03-24T01:45:39.520Z,16.20
2023-03-24T01:48:50.554Z,16.14
2023-03-24T01:51:59.637Z,16.29
2023-03-24T01:55:15.882Z,16.34
2023-03-24T01:58:18.513Z,16.42
2023-03-24T02:01:31.103Z,16.17
2023-03-24T02:05:04.153Z,16.45
2023-03-24T02:08:20.508Z,16.42
2023-03-24T02:11:24.811Z,16.22
2023-03-24T02:14:30.392Z,16.41
2023-03-24T02:17:41.177Z,16.43
2023-03-24T02:21:19.257Z,16.43
2023-03-24T02:24:58.728Z,16.17
2023-03-24T02:28:28.451Z,16.41
2023-03-24T02:32:01.529Z,16.35
2023-03-24T02:35:22.700Z,16.30
2023-03-24T02:38:43.784Z,16.21
2023-03-24T02:42:12.230Z,16.10
2023-03-24T02:45:29.578Z,16.11
2023-03-24T02:48:41.655Z,16.27
2023-03-24T02:51:58.124Z,16.00
2023-03-24T02:55:12.245Z,16.07
2023-03-24T02:58:33.155Z,15.83
2023-03-24T03:01:54.419Z,15.92
2023-03-24T03:05:34.547Z,15.96
2023-03-24T03:08:38.868Z,15.90
2023-03-24T03:11:45.224Z,15.95
2023-03-24T03:14:54.738Z,15.92
2023-03-24T03:18:15.995Z,15.82
2023-03-24T03:21:22.130Z,15.81
2023-03-24T03:24:29.611Z,15.83
2023-03-24T03:27:38.982Z,16.20
2023-03-24T03:30:47.643Z,16.46
2023-03-24T03:34:19.048Z,16.45
2023-03-24T03:37:28.924Z,16.72
2023-03-24T03:40:41.326Z,16.60
2023-03-24T03:43:50.026Z,16.55
2023-03-24T03:46:52.376Z,16.81
2023-03-24T03:50:03.850Z,16.55
2023-03-24T03:53:07.323Z,16.50
2023-03-24T03:56:09.095Z,16.56
2023-03-24T03:59:34.148Z,16.24
2023-03-24T04:03:06.212Z,16.46
2023-03-24T04:06:47.152Z,16.37
2023-03-24T04:09:57.152Z,16.40
2023-03-24T04:13:13.783Z,16.50
2023-03-24T04:17:28.235Z,16.37
2023-03-24T04:20:46.170Z,16.08
2023-03-24T04:24:03.340Z,15.35
2023-03-24T04:27:26.958Z,15.12
2023-03-24T04:30:40.631Z,14.89
2023-03-24T04:33:48.699Z,14.76
2023-03-24T04:36:56.907Z,14.53
2023-03-24T04:40:07.914Z,14.47
2023-03-24T04:43:14.697Z,14.34
2023-03-24T04:46:18.045Z,14.23
2023-03-24T04:49:37.600Z,14.07
2023-03-24T04:52:41.259Z,14.14
2023-03-24T04:55:49.678Z,14.12
2023-03-24T04:58:58.663Z,14.16
2023-03-24T05:02:01.824Z,13.80
2023-03-24T05:05:17.161Z,13.96
2023-03-24T05:08:21.445Z,13.93
2023-03-24T05:11:26.525Z,14.07
2023-03-24T05:14:36.269Z,13.95
2023-03-24T05:17:39.614Z,13.90
2023-03-24T05:20:41.903Z,13.96
2023-03-24T05:23:51.129Z,14.02
2023-03-24T05:26:52.759Z,13.80
2023-03-24T05:29:55.408Z,13.94
2023-03-24T05:33:01.086Z,14.13
2023-03-24T05:36:03.124Z,14.27
2023-03-24T05:39:04.905Z,14.20
2023-03-24T05:42:17.295Z,14.30
2023-03-24T05:45:19.079Z,14.35
2023-03-24T05:48:20.792Z,14.24
2023-03-24T05:51:41.072Z,14.08
2023-03-24T05:54:43.394Z,14.17
2023-03-24T05:57:51.878Z,14.06
2023-03-24T06:01:11.568Z,14.00
2023-03-24T06:04:13.953Z,14.20
2023-03-24T06:07:16.320Z,13.73
2023-03-24T06:10:19.517Z,13.68
2023-03-24T06:13:25.796Z,13.85
2023-03-24T06:16:27.527Z,13.73
2023-03-24T06:19:38.535Z,13.70
2023-03-24T06:22:59.093Z,13.33
2023-03-24T06:26:10.005Z,13.32
2023-03-24T06:29:20.190Z,13.38
2023-03-24T06:32:22.332Z,13.46
2023-03-24T06:35:23.817Z,12.85
2023-03-24T06:38:37.281Z,13.03
2023-03-24T06:41:40.269Z,13.14
2023-03-24T06:44:41.958Z,13.07
2023-03-24T06:47:43.714Z,12.92
2023-03-24T06:50:45.566Z,12.94
2023-03-24T06:53:48.066Z,13.07
2023-03-24T06:56:49.846Z,12.85
2023-03-24T06:59:52.893Z,12.85
2023-03-24T07:02:56.202Z,12.72
2023-03-24T07:05:59.052Z,12.76
2023-03-24T07:09:01.590Z,12.88
2023-03-24T07:12:06.309Z,13.11
2023-03-24T07:15:09.322Z,12.93
2023-03-24T07:18:11.163Z,13.06
2023-03-24T07:21:16.098Z,12.76
2023-03-24T07:24:18.638Z,12.93
2023-03-24T07:27:32.822Z,13.06
2023-03-24T07:30:40.422Z,13.15
2023-03-24T07:33:55.005Z,13.21
2023-03-24T07:36:56.894Z,12.96
2023-03-24T07:39:58.704Z,13.11
2023-03-24T07:43:01.600Z,13.08
2023-03-24T07:46:11.053Z,13.44
2023-03-24T07:49:19.326Z,13.13
2023-03-24T07:52:26.685Z,13.23
2023-03-24T07:55:30.254Z,13.13
2023-03-24T07:58:36.014Z,12.99
2023-03-24T08:01:52.081Z,13.25
2023-03-24T08:05:06.072Z,13.21
2023-03-24T08:08:13.534Z,13.10
2023-03-24T08:11:14.965Z,13.40
2023-03-24T08:14:16.434Z,13.36
2023-03-24T08:17:17.860Z,13.29
2023-03-24T08:20:21.213Z,13.12
2023-03-24T08:23:22.701Z,13.38
2023-03-24T08:26:26.720Z,13.47
2023-03-24T08:29:28.408Z,13.49
2023-03-24T08:32:29.849Z,13.45
2023-03-24T08:35:35.084Z,13.04
2023-03-24T08:38:38.836Z,13.34
2023-03-24T08:41:40.404Z,13.20
2023-03-24T08:44:42.243Z,13.91
2023-03-24T08:47:43.717Z,13.59
2023-03-24T08:50:45.277Z,13.75
2023-03-24T08:53:47.343Z,13.88
2023-03-24T08:56:48.885Z,13.49
2023-03-24T08:59:51.484Z,13.61
2023-03-24T09:02:54.711Z,13.87
2023-03-24T09:05:57.317Z,13.84
2023-03-24T09:08:59.052Z,13.72
2023-03-24T09:12:00.466Z,14.11
2023-03-24T09:15:01.979Z,13.73
2023-03-24T09:18:03.498Z,13.95
2023-03-24T09:21:05.868Z,13.81
2023-03-24T09:24:07.465Z,13.67
2023-03-24T09:27:09.424Z,13.79
2023-03-24T09:30:13.620Z,13.57
2023-03-24T09:33:15.369Z,13.73
2023-03-24T09:36:16.856Z,14.17
2023-03-24T09:39:20.110Z,13.83
2023-03-24T09:42:24.045Z,14.10
2023-03-24T09:45:29.430Z,14.14
2023-03-24T09:48:41.177Z,14.29
2023-03-24T09:51:45.203Z,14.11
2023-03-24T09:55:02.546Z,13.95
2023-03-24T09:58:08.412Z,14.28
2023-03-24T10:01:17.978Z,14.09
2023-03-24T10:04:22.029Z,14.18
2023-03-24T10:07:35.733Z,14.00
2023-03-24T10:11:03.314Z,14.11
2023-03-24T10:14:18.563Z,14.19
2023-03-24T10:17:57.417Z,14.13
2023-03-24T10:21:11.176Z,13.92
2023-03-24T10:24:38.408Z,14.30
2023-03-24T10:27:57.501Z,13.93
2023-03-24T10:31:02.502Z,14.21
2023-03-24T10:34:04.931Z,14.07
2023-03-24T10:37:07.216Z,14.16
2023-03-24T10:40:22.247Z,14.07
2023-03-24T10:43:26.010Z,14.06
2023-03-24T10:46:31.317Z,14.43
2023-03-24T10:49:33.624Z,13.78
2023-03-24T10:52:40.695Z,14.51
2023-03-24T10:55:44.008Z,14.16
2023-03-24T10:58:47.046Z,14.19
2023-03-24T11:01:49.031Z,14.11
2023-03-24T11:04:57.218Z,14.30
2023-03-24T11:08:14.167Z,14.07
2023-03-24T11:11:30.787Z,13.99
2023-03-24T11:14:32.787Z,14.01
2023-03-24T11:17:34.227Z,13.92
2023-03-24T11:20:39.122Z,13.85
2023-03-24T11:23:45.666Z,13.67
2023-03-24T11:27:02.104Z,13.76
2023-03-24T11:30:04.406Z,13.06
2023-03-24T11:33:07.137Z,13.13
2023-03-24T11:36:31.009Z,13.10
2023-03-24T11:39:34.200Z,13.07
2023-03-24T11:42:46.067Z,13.05
2023-03-24T11:45:58.820Z,12.61
2023-03-24T11:49:00.447Z,12.78
2023-03-24T11:52:03.953Z,12.84
2023-03-24T11:55:16.360Z,12.96
2023-03-24T11:58:41.102Z,12.99
2023-03-24T12:01:54.825Z,13.23
2023-03-24T12:05:27.332Z,12.75
2023-03-24T12:08:44.274Z,13.48
2023-03-24T12:12:08.110Z,13.13
2023-03-24T12:15:26.704Z,13.17
2023-03-24T12:18:37.442Z,13.14
2023-03-24T12:21:59.518Z,13.11
2023-03-24T12:25:18.137Z,13.30
2023-03-24T12:28:37.874Z,13.52
2023-03-24T12:32:21.012Z,13.42
2023-03-24T12:35:50.508Z,13.47
2023-03-24T12:39:10.567Z,13.34
2023-03-24T12:42:20.941Z,13.21
2023-03-24T12:45:44.688Z,13.16
2023-03-24T12:49:10.806Z,13.17
2023-03-24T12:52:43.810Z,13.31
2023-03-24T12:55:57.578Z,13.14
2023-03-24T12:59:10.445Z,13.27
2023-03-24T13:02:39.099Z,13.55
2023-03-24T13:05:53.556Z,13.31
2023-03-24T13:09:03.429Z,13.10
2023-03-24T13:12:15.127Z,13.19
2023-03-24T13:15:21.084Z,13.14
2023-03-24T13:18:36.261Z,12.88
2023-03-24T13:21:37.761Z,13.14
2023-03-24T13:24:39.832Z,13.16
2023-03-24T13:27:42.982Z,12.93
2023-03-24T13:30:45.640Z,13.09
2023-03-24T13:33:48.755Z,13.20
2023-03-24T13:36:59.825Z,12.89
2023-03-24T13:40:10.928Z,12.87
2023-03-24T13:43:18.857Z,12.72
2023-03-24T13:46:20.522Z,12.91
2023-03-24T13:49:21.987Z,12.58
2023-03-24T13:52:30.956Z,12.79
2023-03-24T13:55:37.471Z,12.98
2023-03-24T13:58:49.391Z,12.59
2023-03-24T14:02:23.878Z,12.73
2023-03-24T14:06:17.200Z,12.99
2023-03-24T14:09:27.865Z,13.02
2023-03-24T14:12:32.751Z,12.84
2023-03-24T14:15:40.282Z,12.85
2023-03-24T14:18:42.537Z,12.52
2023-03-24T14:21:44.627Z,12.67
2023-03-24T14:24:56.306Z,12.70
2023-03-24T14:28:21.543Z,12.36
2023-03-24T14:31:34.326Z,12.21
2023-03-24T14:34:37.524Z,12.24
2023-03-24T14:37:49.861Z,12.19
2023-03-24T14:41:06.048Z,11.86
2023-03-24T14:44:07.686Z,11.85
2023-03-24T14:47:09.608Z,11.85
2023-03-24T14:50:21.558Z,12.11
2023-03-24T14:53:23.528Z,12.28
2023-03-24T14:56:33.824Z,12.48
2023-03-24T14:59:43.341Z,12.68
2023-03-24T15:02:53.337Z,12.95
2023-03-24T15:06:04.439Z,13.44
2023-03-24T15:09:10.751Z,13.41
2023-03-24T15:12:12.240Z,13.56
2023-03-24T15:15:17.002Z,13.58
2023-03-24T15:18:19.046Z,13.21
2023-03-24T15:21:38.801Z,12.96
2023-03-24T15:24:42.157Z,13.23
2023-03-24T15:27:53.061Z,13.07
2023-03-24T15:30:56.412Z,12.84
2023-03-24T15:34:14.260Z,12.72
2023-03-24T15:37:22.175Z,12.98
2023-03-24T15:40:26.612Z,12.87
2023-03-24T15:43:28.639Z,12.56
2023-03-24T15:46:31.241Z,12.20
2023-03-24T15:49:34.499Z,12.49
2023-03-24T15:52:38.698Z,12.73
2023-03-24T15:55:43.401Z,12.92
2023-03-24T15:59:16.211Z,12.78
2023-03-24T16:02:38.946Z,12.57
2023-03-24T16:05:48.262Z,12.45
2023-03-24T16:08:49.709Z,12.72
2023-03-24T16:11:51.167Z,13.06
2023-03-24T16:14:52.586Z,13.26
2023-03-24T16:17:54.014Z,12.74
2023-03-24T16:20:56.109Z,12.97
2023-03-24T16:23:58.246Z,12.97
2023-03-24T16:26:59.656Z,12.77
2023-03-24T16:30:01.412Z,13.01
2023-03-24T16:33:03.654Z,13.17
2023-03-24T16:36:05.160Z,13.19
2023-03-24T16:39:15.842Z,13.30
2023-03-24T16:42:17.436Z,12.95
2023-03-24T16:45:18.831Z,12.64
2023-03-24T16:48:20.259Z,13.05
2023-03-24T16:51:22.104Z,12.38
2023-03-24T16:54:23.616Z,12.51
2023-03-24T16:57:25.218Z,12.60
2023-03-24T17:00:27.518Z,12.79
2023-03-24T17:03:32.147Z,12.85
2023-03-24T17:06:33.735Z,12.59
2023-03-24T17:09:35.304Z,12.68
2023-03-24T17:12:36.815Z,12.90
2023-03-24T17:15:38.254Z,12.75
2023-03-24T17:18:39.708Z,12.52
2023-03-24T17:21:49.233Z,12.46
2023-03-24T17:24:57.506Z,12.48
2023-03-24T17:27:59.151Z,12.08
2023-03-24T17:31:00.934Z,12.38
2023-03-24T17:34:18.673Z,12.38
2023-03-24T17:37:22.345Z,12.35
2023-03-24T17:40:23.856Z,12.24
2023-03-24T17:43:25.386Z,12.38
2023-03-24T17:46:26.855Z,12.34
2023-03-24T17:49:28.372Z,12.37
2023-03-24T17:52:30.278Z,12.13
2023-03-24T17:55:31.718Z,12.03
2023-03-24T17:58:35.740Z,11.90
2023-03-24T18:01:39.263Z,11.94
2023-03-24T18:04:40.977Z,11.54
2023-03-24T18:07:42.401Z,11.64
2023-03-24T18:10:44.157Z,11.38
2023-03-24T18:13:46.418Z,11.28
2023-03-24T18:16:47.750Z,11.52
2023-03-24T18:19:50.350Z,11.37
2023-03-24T18:22:52.092Z,11.43
2023-03-24T18:26:01.722Z,11.44
2023-03-24T18:29:04.006Z,11.66
2023-03-24T18:32:06.212Z,11.59
2023-03-24T18:35:10.336Z,11.27
2023-03-24T18:38:11.941Z,11.36
2023-03-24T18:41:14.241Z,11.21
2023-03-24T18:44:15.975Z,11.61
2023-03-24T18:47:17.675Z,11.46
2023-03-24T18:50:19.168Z,11.38
2023-03-24T18:53:20.669Z,11.37
2023-03-24T18:56:22.998Z,11.34
2023-03-24T18:59:24.383Z,11.40
2023-03-24T19:02:26.219Z,11.42
2023-03-24T19:05:29.333Z,11.41
2023-03-24T19:08:30.847Z,11.25
2023-03-24T19:11:32.312Z,11.18
2023-03-24T19:14:34.396Z,11.27
2023-03-24T19:17:36.130Z,11.38
2023-03-24T19:20:39.786Z,11.35
2023-03-24T19:23:41.366Z,11.20
2023-03-24T19:26:42.824Z,11.37
2023-03-24T19:29:44.410Z,11.25
2023-03-24T19:32:46.728Z,11.17
2023-03-24T19:35:50.136Z,11.26
2023-03-24T19:38:51.816Z,11.22
2023-03-24T19:41:53.412Z,11.11
2023-03-24T19:44:55.511Z,11.16
2023-03-24T19:47:56.942Z,11.48
2023-03-24T19:50:58.491Z,11.60
2023-03-24T19:54:00.153Z,11.45
2023-03-24T19:57:01.707Z,11.28
2023-03-24T20:00:06.076Z,11.01
2023-03-24T20:03:08.526Z,11.27
2023-03-24T20:06:10.290Z,11.07
2023-03-24T20:09:12.937Z,11.10
2023-03-24T20:12:14.587Z,11.08
2023-03-24T20:15:16.266Z,11.10
2023-03-24T20:18:17.689Z,11.18
2023-03-24T20:21:22.749Z,11.12
2023-03-24T20:24:24.431Z,11.11
2023-03-24T20:27:25.988Z,11.16
2023-03-24T20:30:28.738Z,11.31
2023-03-24T20:33:30.372Z,10.95
2023-03-24T20:36:32.270Z,11.16
2023-03-24T20:39:34.061Z,10.62
2023-03-24T20:42:35.541Z,10.42
2023-03-24T20:45:36.944Z,10.43
2023-03-24T20:48:38.364Z,10.44
2023-03-24T20:51:40.613Z,10.29
2023-03-24T20:54:42.035Z,10.46
2023-03-24T20:57:43.522Z,10.27
2023-03-24T21:00:48.063Z,10.31
2023-03-24T21:03:51.658Z,10.60
2023-03-24T21:06:54.373Z,10.58
2023-03-24T21:09:55.921Z,10.19
2023-03-24T21:12:57.530Z,10.60
2023-03-24T21:15:59.033Z,10.76
2023-03-24T21:19:03.624Z,10.87
2023-03-24T21:22:05.071Z,10.83
2023-03-24T21:25:07.434Z,10.67
2023-03-24T21:28:09.835Z,10.98
2023-03-24T21:31:22.302Z,10.78
2023-03-24T21:34:23.739Z,11.02
2023-03-24T21:37:25.521Z,11.06
2023-03-24T21:40:27.352Z,10.95
2023-03-24T21:43:29.138Z,10.79
2023-03-24T21:46:32.168Z,10.35
2023-03-24T21:49:33.783Z,10.25
2023-03-24T21:52:41.519Z,9.58
2023-03-24T21:55:52.766Z,10.05
2023-03-24T21:58:54.777Z,9.71
2023-03-24T22:01:57.511Z,9.93
2023-03-24T22:05:01.480Z,9.94
2023-03-24T22:08:02.973Z,10.11
2023-03-24T22:11:05.204Z,10.19
2023-03-24T22:14:06.727Z,10.00
2023-03-24T22:17:08.578Z,10.17
2023-03-24T22:20:11.043Z,10.01
2023-03-24T22:23:12.469Z,9.96
2023-03-24T22:26:17.232Z,10.12
2023-03-24T22:29:18.957Z,10.07
2023-03-24T22:32:20.420Z,10.31
2023-03-24T22:35:23.127Z,10.46
2023-03-24T22:38:25.438Z,10.49
2023-03-24T22:41:26.747Z,10.50
2023-03-24T22:44:31.363Z,10.52
2023-03-24T22:47:32.820Z,10.38
2023-03-24T22:50:34.235Z,10.64
2023-03-24T22:53:36.012Z,10.62
2023-03-24T22:56:37.461Z,9.92
2023-03-24T22:59:38.971Z,9.64
2023-03-24T23:02:40.620Z,9.78
2023-03-24T23:05:43.881Z,9.76
2023-03-24T23:08:45.515Z,9.62
2023-03-24T23:11:47.497Z,9.37
2023-03-24T23:14:48.982Z,9.82
2023-03-24T23:17:51.538Z,9.89
2023-03-24T23:21:09.027Z,9.89
2023-03-24T23:24:10.933Z,9.43
2023-03-24T23:27:12.375Z,9.81
2023-03-24T23:30:15.323Z,9.58
2023-03-24T23:33:16.779Z,9.36
2023-03-24T23:36:19.259Z,9.29
2023-03-24T23:39:20.904Z,9.65
2023-03-24T23:42:22.438Z,9.71
2023-03-24T23:45:24.101Z,10.04
2023-03-24T23:48:26.052Z,9.64
2023-03-24T23:51:27.592Z,9.88
2023-03-24T23:54:29.214Z,9.73
2023-03-24T23:57:31.306Z,9.41
